sensor_id;sensor_type;location;lat;lon;timestamp;temperature;humidity
19437;DHT22;9854;50.968;4.168;2022-08-21T00:01:16;18.40;99.90
19437;DHT22;9854;50.968;4.168;2022-08-21T00:03:42;18.20;99.90
19437;DHT22;9854;50.968;4.168;2022-08-21T00:06:08;18.20;99.90
19437;DHT22;9854;50.968;4.168;2022-08-21T00:08:34;18.10;99.90
19437;DHT22;9854;50.968;4.168;2022-08-21T00:11:00;18.20;99.90
19437;DHT22;9854;50.968;4.168;2022-08-21T00:13:25;18.20;99.90
19437;DHT22;9854;50.968;4.168;2022-08-21T00:15:51;18.20;99.90
19437;DHT22;9854;50.968;4.168;2022-08-21T00:18:17;18.20;99.90
19437;DHT22;9854;50.968;4.168;2022-08-21T00:20:44;18.10;99.90
19437;DHT22;9854;50.968;4.168;2022-08-21T00:23:11;18.00;99.90
19437;DHT22;9854;50.968;4.168;2022-08-21T00:25:37;18.10;99.90
19437;DHT22;9854;50.968;4.168;2022-08-21T00:28:03;18.00;99.90
19437;DHT22;9854;50.968;4.168;2022-08-21T00:30:30;18.00;99.90
19437;DHT22;9854;50.968;4.168;2022-08-21T00:32:57;17.90;99.90
19437;DHT22;9854;50.968;4.168;2022-08-21T00:35:30;17.80;99.90
19437;DHT22;9854;50.968;4.168;2022-08-21T00:37:56;17.70;99.90
19437;DHT22;9854;50.968;4.168;2022-08-21T00:40:32;17.70;99.90
19437;DHT22;9854;50.968;4.168;2022-08-21T00:42:58;17.60;99.90
19437;DHT22;9854;50.968;4.168;2022-08-21T00:45:24;17.60;99.90
19437;DHT22;9854;50.968;4.168;2022-08-21T00:47:51;17.60;99.90
19437;DHT22;9854;50.968;4.168;2022-08-21T00:50:18;17.60;99.90
19437;DHT22;9854;50.968;4.168;2022-08-21T00:52:45;17.60;99.90
19437;DHT22;9854;50.968;4.168;2022-08-21T00:55:11;17.70;99.90
19437;DHT22;9854;50.968;4.168;2022-08-21T00:57:47;17.70;99.90
19437;DHT22;9854;50.968;4.168;2022-08-21T01:00:19;17.80;99.90
19437;DHT22;9854;50.968;4.168;2022-08-21T01:02:45;18.10;99.90
19437;DHT22;9854;50.968;4.168;2022-08-21T01:05:11;18.00;99.90
19437;DHT22;9854;50.968;4.168;2022-08-21T01:07:37;18.10;99.90
19437;DHT22;9854;50.968;4.168;2022-08-21T01:10:06;18.20;99.90
19437;DHT22;9854;50.968;4.168;2022-08-21T01:12:33;18.50;99.90
19437;DHT22;9854;50.968;4.168;2022-08-21T01:15:01;18.60;99.90
19437;DHT22;9854;50.968;4.168;2022-08-21T01:17:28;18.40;99.90
19437;DHT22;9854;50.968;4.168;2022-08-21T01:19:58;18.00;99.90
19437;DHT22;9854;50.968;4.168;2022-08-21T01:22:23;17.60;99.90
19437;DHT22;9854;50.968;4.168;2022-08-21T01:24:49;17.60;99.90
19437;DHT22;9854;50.968;4.168;2022-08-21T01:27:15;17.90;99.90
19437;DHT22;9854;50.968;4.168;2022-08-21T01:29:46;17.80;99.90
19437;DHT22;9854;50.968;4.168;2022-08-21T01:32:16;17.90;99.90
19437;DHT22;9854;50.968;4.168;2022-08-21T01:34:45;17.90;99.90
19437;DHT22;9854;50.968;4.168;2022-08-21T01:37:12;17.90;99.90
19437;DHT22;9854;50.968;4.168;2022-08-21T01:39:38;17.90;99.90
19437;DHT22;9854;50.968;4.168;2022-08-21T01:42:04;17.70;99.90
19437;DHT22;9854;50.968;4.168;2022-08-21T01:44:30;17.50;99.90
19437;DHT22;9854;50.968;4.168;2022-08-21T01:46:59;17.50;99.90
19437;DHT22;9854;50.968;4.168;2022-08-21T01:49:25;17.30;99.90
19437;DHT22;9854;50.968;4.168;2022-08-21T01:51:51;17.10;99.90
19437;DHT22;9854;50.968;4.168;2022-08-21T01:54:17;17.10;99.90
19437;DHT22;9854;50.968;4.168;2022-08-21T01:56:46;17.20;99.90
19437;DHT22;9854;50.968;4.168;2022-08-21T01:59:13;17.40;99.90
19437;DHT22;9854;50.968;4.168;2022-08-21T02:01:39;17.70;99.90
19437;DHT22;9854;50.968;4.168;2022-08-21T02:04:06;17.70;99.90
19437;DHT22;9854;50.968;4.168;2022-08-21T02:06:33;17.60;99.90
19437;DHT22;9854;50.968;4.168;2022-08-21T02:08:58;17.60;99.90
19437;DHT22;9854;50.968;4.168;2022-08-21T02:11:24;17.50;99.90
19437;DHT22;9854;50.968;4.168;2022-08-21T02:13:50;17.40;99.90
19437;DHT22;9854;50.968;4.168;2022-08-21T02:16:15;17.20;99.90
19437;DHT22;9854;50.968;4.168;2022-08-21T02:18:41;17.20;99.90
19437;DHT22;9854;50.968;4.168;2022-08-21T02:21:07;17.20;99.90
19437;DHT22;9854;50.968;4.168;2022-08-21T02:23:33;17.00;99.90
19437;DHT22;9854;50.968;4.168;2022-08-21T02:26:01;17.20;99.90
19437;DHT22;9854;50.968;4.168;2022-08-21T02:28:27;17.30;99.90
19437;DHT22;9854;50.968;4.168;2022-08-21T02:30:54;17.10;99.90
19437;DHT22;9854;50.968;4.168;2022-08-21T02:33:20;17.10;99.90
19437;DHT22;9854;50.968;4.168;2022-08-21T02:35:47;17.00;99.90
19437;DHT22;9854;50.968;4.168;2022-08-21T02:38:19;16.90;99.90
19437;DHT22;9854;50.968;4.168;2022-08-21T02:40:48;16.80;99.90
19437;DHT22;9854;50.968;4.168;2022-08-21T02:43:15;17.00;99.90
19437;DHT22;9854;50.968;4.168;2022-08-21T02:45:41;16.90;99.90
19437;DHT22;9854;50.968;4.168;2022-08-21T02:48:11;16.90;99.90
19437;DHT22;9854;50.968;4.168;2022-08-21T02:50:41;17.10;99.90
19437;DHT22;9854;50.968;4.168;2022-08-21T02:53:09;17.20;99.90
19437;DHT22;9854;50.968;4.168;2022-08-21T02:55:36;17.00;99.90
19437;DHT22;9854;50.968;4.168;2022-08-21T02:58:04;16.80;99.90
19437;DHT22;9854;50.968;4.168;2022-08-21T03:00:31;16.80;99.90
19437;DHT22;9854;50.968;4.168;2022-08-21T03:02:57;16.80;99.90
19437;DHT22;9854;50.968;4.168;2022-08-21T03:05:25;16.70;99.90
19437;DHT22;9854;50.968;4.168;2022-08-21T03:07:51;16.60;99.90
19437;DHT22;9854;50.968;4.168;2022-08-21T03:10:20;16.60;99.90
19437;DHT22;9854;50.968;4.168;2022-08-21T03:12:46;16.50;99.90
19437;DHT22;9854;50.968;4.168;2022-08-21T03:15:15;16.50;99.90
19437;DHT22;9854;50.968;4.168;2022-08-21T03:17:42;16.60;99.90
19437;DHT22;9854;50.968;4.168;2022-08-21T03:20:09;16.70;99.90
19437;DHT22;9854;50.968;4.168;2022-08-21T03:22:34;16.50;99.90
19437;DHT22;9854;50.968;4.168;2022-08-21T03:25:00;16.40;99.90
19437;DHT22;9854;50.968;4.168;2022-08-21T03:27:27;16.30;99.90
19437;DHT22;9854;50.968;4.168;2022-08-21T03:29:54;16.20;99.90
19437;DHT22;9854;50.968;4.168;2022-08-21T03:32:20;16.20;99.90
19437;DHT22;9854;50.968;4.168;2022-08-21T03:34:46;16.30;99.90
19437;DHT22;9854;50.968;4.168;2022-08-21T03:37:12;16.30;99.90
19437;DHT22;9854;50.968;4.168;2022-08-21T03:39:38;16.40;99.90
19437;DHT22;9854;50.968;4.168;2022-08-21T03:42:04;16.40;99.90
19437;DHT22;9854;50.968;4.168;2022-08-21T03:44:30;16.30;99.90
19437;DHT22;9854;50.968;4.168;2022-08-21T03:46:57;16.40;99.90
19437;DHT22;9854;50.968;4.168;2022-08-21T03:49:23;16.40;99.90
19437;DHT22;9854;50.968;4.168;2022-08-21T03:51:49;16.50;99.90
19437;DHT22;9854;50.968;4.168;2022-08-21T03:54:15;16.50;99.90
19437;DHT22;9854;50.968;4.168;2022-08-21T03:56:40;16.50;99.90
19437;DHT22;9854;50.968;4.168;2022-08-21T03:59:06;16.60;99.90
19437;DHT22;9854;50.968;4.168;2022-08-21T04:01:32;16.40;99.90
19437;DHT22;9854;50.968;4.168;2022-08-21T04:03:58;16.20;99.90
19437;DHT22;9854;50.968;4.168;2022-08-21T04:06:24;16.10;99.90
19437;DHT22;9854;50.968;4.168;2022-08-21T04:08:53;16.20;99.90
19437;DHT22;9854;50.968;4.168;2022-08-21T04:11:19;16.10;99.90
19437;DHT22;9854;50.968;4.168;2022-08-21T04:13:46;16.00;99.90
19437;DHT22;9854;50.968;4.168;2022-08-21T04:16:12;16.00;99.90
19437;DHT22;9854;50.968;4.168;2022-08-21T04:18:38;16.00;99.90
19437;DHT22;9854;50.968;4.168;2022-08-21T04:21:05;16.00;99.90
19437;DHT22;9854;50.968;4.168;2022-08-21T04:23:31;16.00;99.90
19437;DHT22;9854;50.968;4.168;2022-08-21T04:25:57;15.90;99.90
19437;DHT22;9854;50.968;4.168;2022-08-21T04:28:24;15.90;99.90
19437;DHT22;9854;50.968;4.168;2022-08-21T04:30:51;15.90;99.90
19437;DHT22;9854;50.968;4.168;2022-08-21T04:33:17;15.90;99.90
19437;DHT22;9854;50.968;4.168;2022-08-21T04:35:43;16.00;99.90
19437;DHT22;9854;50.968;4.168;2022-08-21T04:38:09;15.90;99.90
19437;DHT22;9854;50.968;4.168;2022-08-21T04:40:35;15.90;99.90
19437;DHT22;9854;50.968;4.168;2022-08-21T04:43:05;15.80;99.90
19437;DHT22;9854;50.968;4.168;2022-08-21T04:45:32;16.00;99.90
19437;DHT22;9854;50.968;4.168;2022-08-21T04:48:00;15.90;99.90
19437;DHT22;9854;50.968;4.168;2022-08-21T04:50:36;15.80;99.90
19437;DHT22;9854;50.968;4.168;2022-08-21T04:53:12;15.90;99.90
19437;DHT22;9854;50.968;4.168;2022-08-21T04:55:39;16.00;99.90
19437;DHT22;9854;50.968;4.168;2022-08-21T04:58:08;15.80;99.90
19437;DHT22;9854;50.968;4.168;2022-08-21T05:00:34;15.80;99.90
19437;DHT22;9854;50.968;4.168;2022-08-21T05:03:01;15.80;99.90
19437;DHT22;9854;50.968;4.168;2022-08-21T05:05:28;15.80;99.90
19437;DHT22;9854;50.968;4.168;2022-08-21T05:07:55;15.60;99.90
19437;DHT22;9854;50.968;4.168;2022-08-21T05:10:22;15.60;99.90
19437;DHT22;9854;50.968;4.168;2022-08-21T05:12:48;15.60;99.90
19437;DHT22;9854;50.968;4.168;2022-08-21T05:15:14;15.60;99.90
19437;DHT22;9854;50.968;4.168;2022-08-21T05:17:41;15.70;99.90
19437;DHT22;9854;50.968;4.168;2022-08-21T05:20:11;15.70;99.90
19437;DHT22;9854;50.968;4.168;2022-08-21T05:22:37;15.80;99.90
19437;DHT22;9854;50.968;4.168;2022-08-21T05:25:04;15.70;99.90
19437;DHT22;9854;50.968;4.168;2022-08-21T05:27:30;16.00;99.90
19437;DHT22;9854;50.968;4.168;2022-08-21T05:29:56;15.80;99.90
19437;DHT22;9854;50.968;4.168;2022-08-21T05:32:21;15.70;99.90
19437;DHT22;9854;50.968;4.168;2022-08-21T05:34:47;15.70;99.90
19437;DHT22;9854;50.968;4.168;2022-08-21T05:37:13;15.80;99.90
19437;DHT22;9854;50.968;4.168;2022-08-21T05:39:39;15.80;99.90
19437;DHT22;9854;50.968;4.168;2022-08-21T05:42:05;15.80;99.90
19437;DHT22;9854;50.968;4.168;2022-08-21T05:44:30;15.90;99.90
19437;DHT22;9854;50.968;4.168;2022-08-21T05:47:03;15.90;99.90
19437;DHT22;9854;50.968;4.168;2022-08-21T05:49:28;16.00;99.90
19437;DHT22;9854;50.968;4.168;2022-08-21T05:51:54;16.00;99.90
19437;DHT22;9854;50.968;4.168;2022-08-21T05:54:19;16.00;99.90
19437;DHT22;9854;50.968;4.168;2022-08-21T05:56:45;16.10;99.90
19437;DHT22;9854;50.968;4.168;2022-08-21T05:59:11;16.20;99.90
19437;DHT22;9854;50.968;4.168;2022-08-21T06:01:36;16.20;99.90
19437;DHT22;9854;50.968;4.168;2022-08-21T06:04:02;16.20;99.90
19437;DHT22;9854;50.968;4.168;2022-08-21T06:06:28;16.20;99.90
19437;DHT22;9854;50.968;4.168;2022-08-21T06:08:53;16.30;99.90
19437;DHT22;9854;50.968;4.168;2022-08-21T06:11:19;16.30;99.90
19437;DHT22;9854;50.968;4.168;2022-08-21T06:13:44;16.40;99.90
19437;DHT22;9854;50.968;4.168;2022-08-21T06:16:13;16.40;99.90
19437;DHT22;9854;50.968;4.168;2022-08-21T06:18:40;16.50;99.90
19437;DHT22;9854;50.968;4.168;2022-08-21T06:21:06;16.50;99.90
19437;DHT22;9854;50.968;4.168;2022-08-21T06:23:32;16.60;99.90
19437;DHT22;9854;50.968;4.168;2022-08-21T06:25:58;16.90;99.90
19437;DHT22;9854;50.968;4.168;2022-08-21T06:28:24;16.90;99.90
19437;DHT22;9854;50.968;4.168;2022-08-21T06:30:50;17.00;99.90
19437;DHT22;9854;50.968;4.168;2022-08-21T06:33:15;17.00;99.90
19437;DHT22;9854;50.968;4.168;2022-08-21T06:35:41;17.10;99.90
19437;DHT22;9854;50.968;4.168;2022-08-21T06:38:07;17.20;99.90
19437;DHT22;9854;50.968;4.168;2022-08-21T06:40:33;17.30;99.90
19437;DHT22;9854;50.968;4.168;2022-08-21T06:43:08;17.30;99.90
19437;DHT22;9854;50.968;4.168;2022-08-21T06:45:34;17.40;99.90
19437;DHT22;9854;50.968;4.168;2022-08-21T06:48:00;17.50;99.90
19437;DHT22;9854;50.968;4.168;2022-08-21T06:50:25;17.80;99.90
19437;DHT22;9854;50.968;4.168;2022-08-21T06:53:04;17.80;99.90
19437;DHT22;9854;50.968;4.168;2022-08-21T06:55:30;17.90;99.90
19437;DHT22;9854;50.968;4.168;2022-08-21T06:57:56;17.90;99.90
19437;DHT22;9854;50.968;4.168;2022-08-21T07:00:21;18.00;99.90
19437;DHT22;9854;50.968;4.168;2022-08-21T07:02:47;17.90;99.90
19437;DHT22;9854;50.968;4.168;2022-08-21T07:05:13;18.20;99.90
19437;DHT22;9854;50.968;4.168;2022-08-21T07:07:39;18.40;99.90
19437;DHT22;9854;50.968;4.168;2022-08-21T07:10:04;18.50;99.90
19437;DHT22;9854;50.968;4.168;2022-08-21T07:12:30;18.70;99.90
19437;DHT22;9854;50.968;4.168;2022-08-21T07:14:56;18.70;99.90
19437;DHT22;9854;50.968;4.168;2022-08-21T07:17:22;18.60;99.90
19437;DHT22;9854;50.968;4.168;2022-08-21T07:19:47;18.80;99.90
19437;DHT22;9854;50.968;4.168;2022-08-21T07:22:15;18.90;99.90
19437;DHT22;9854;50.968;4.168;2022-08-21T07:24:41;18.90;99.90
19437;DHT22;9854;50.968;4.168;2022-08-21T07:27:07;18.90;99.90
19437;DHT22;9854;50.968;4.168;2022-08-21T07:29:32;18.80;99.90
19437;DHT22;9854;50.968;4.168;2022-08-21T07:31:58;18.80;99.90
19437;DHT22;9854;50.968;4.168;2022-08-21T07:34:24;19.00;99.90
19437;DHT22;9854;50.968;4.168;2022-08-21T07:36:49;19.20;99.90
19437;DHT22;9854;50.968;4.168;2022-08-21T07:39:15;19.40;99.90
19437;DHT22;9854;50.968;4.168;2022-08-21T07:41:40;19.50;99.90
19437;DHT22;9854;50.968;4.168;2022-08-21T07:44:06;19.60;99.90
19437;DHT22;9854;50.968;4.168;2022-08-21T07:46:31;19.60;99.90
19437;DHT22;9854;50.968;4.168;2022-08-21T07:48:57;19.70;99.90
19437;DHT22;9854;50.968;4.168;2022-08-21T07:51:26;19.80;99.90
19437;DHT22;9854;50.968;4.168;2022-08-21T07:53:54;19.90;99.90
19437;DHT22;9854;50.968;4.168;2022-08-21T07:56:20;19.90;99.90
19437;DHT22;9854;50.968;4.168;2022-08-21T07:58:46;20.10;99.90
19437;DHT22;9854;50.968;4.168;2022-08-21T08:01:11;20.20;99.90
19437;DHT22;9854;50.968;4.168;2022-08-21T08:03:37;20.00;99.90
19437;DHT22;9854;50.968;4.168;2022-08-21T08:06:04;20.20;99.90
19437;DHT22;9854;50.968;4.168;2022-08-21T08:08:30;20.30;99.90
19437;DHT22;9854;50.968;4.168;2022-08-21T08:10:58;20.10;99.90
19437;DHT22;9854;50.968;4.168;2022-08-21T08:13:24;20.10;99.90
19437;DHT22;9854;50.968;4.168;2022-08-21T08:15:50;20.40;99.90
19437;DHT22;9854;50.968;4.168;2022-08-21T08:18:16;20.40;99.90
19437;DHT22;9854;50.968;4.168;2022-08-21T08:20:41;20.60;99.90
19437;DHT22;9854;50.968;4.168;2022-08-21T08:23:13;20.60;99.90
19437;DHT22;9854;50.968;4.168;2022-08-21T08:25:39;20.40;99.90
19437;DHT22;9854;50.968;4.168;2022-08-21T08:28:06;20.40;99.90
19437;DHT22;9854;50.968;4.168;2022-08-21T08:30:32;20.50;99.90
19437;DHT22;9854;50.968;4.168;2022-08-21T08:32:58;20.70;99.90
19437;DHT22;9854;50.968;4.168;2022-08-21T08:35:25;20.90;99.90
19437;DHT22;9854;50.968;4.168;2022-08-21T08:37:51;21.00;99.90
19437;DHT22;9854;50.968;4.168;2022-08-21T08:40:28;20.90;99.90
19437;DHT22;9854;50.968;4.168;2022-08-21T08:42:56;20.80;99.90
19437;DHT22;9854;50.968;4.168;2022-08-21T08:45:22;20.80;99.90
19437;DHT22;9854;50.968;4.168;2022-08-21T08:47:55;20.80;99.90
19437;DHT22;9854;50.968;4.168;2022-08-21T08:50:49;20.90;99.90
19437;DHT22;9854;50.968;4.168;2022-08-21T08:53:30;20.80;99.90
19437;DHT22;9854;50.968;4.168;2022-08-21T08:55:57;20.70;99.90
19437;DHT22;9854;50.968;4.168;2022-08-21T08:58:36;21.00;99.90
19437;DHT22;9854;50.968;4.168;2022-08-21T09:01:05;21.10;99.90
19437;DHT22;9854;50.968;4.168;2022-08-21T09:03:34;21.30;99.90
19437;DHT22;9854;50.968;4.168;2022-08-21T09:06:04;21.50;99.90
19437;DHT22;9854;50.968;4.168;2022-08-21T09:08:41;21.50;99.90
19437;DHT22;9854;50.968;4.168;2022-08-21T09:11:41;21.50;99.90
19437;DHT22;9854;50.968;4.168;2022-08-21T09:17:19;21.60;99.90
19437;DHT22;9854;50.968;4.168;2022-08-21T09:28:14;22.50;99.90
19437;DHT22;9854;50.968;4.168;2022-08-21T09:30:40;22.70;99.90
19437;DHT22;9854;50.968;4.168;2022-08-21T09:33:07;22.60;99.90
19437;DHT22;9854;50.968;4.168;2022-08-21T09:35:32;22.40;99.90
19437;DHT22;9854;50.968;4.168;2022-08-21T09:38:05;22.50;99.90
19437;DHT22;9854;50.968;4.168;2022-08-21T09:43:22;22.30;99.90
19437;DHT22;9854;50.968;4.168;2022-08-21T09:46:11;22.40;99.90
19437;DHT22;9854;50.968;4.168;2022-08-21T09:48:45;22.60;99.90
19437;DHT22;9854;50.968;4.168;2022-08-21T09:51:15;22.30;99.90
19437;DHT22;9854;50.968;4.168;2022-08-21T09:53:45;22.50;99.90
19437;DHT22;9854;50.968;4.168;2022-08-21T09:56:25;22.20;99.90
19437;DHT22;9854;50.968;4.168;2022-08-21T09:59:33;22.10;99.90
19437;DHT22;9854;50.968;4.168;2022-08-21T10:02:02;22.50;99.90
19437;DHT22;9854;50.968;4.168;2022-08-21T10:04:35;22.70;99.90
19437;DHT22;9854;50.968;4.168;2022-08-21T10:07:13;23.00;99.90
19437;DHT22;9854;50.968;4.168;2022-08-21T10:09:40;23.40;99.90
19437;DHT22;9854;50.968;4.168;2022-08-21T10:17:48;23.10;99.90
19437;DHT22;9854;50.968;4.168;2022-08-21T10:28:57;22.40;99.90
19437;DHT22;9854;50.968;4.168;2022-08-21T10:31:29;22.30;99.90
19437;DHT22;9854;50.968;4.168;2022-08-21T10:42:50;23.20;99.90
19437;DHT22;9854;50.968;4.168;2022-08-21T10:45:36;23.40;99.90
19437;DHT22;9854;50.968;4.168;2022-08-21T10:48:07;23.20;99.90
19437;DHT22;9854;50.968;4.168;2022-08-21T10:53:19;23.20;99.90
19437;DHT22;9854;50.968;4.168;2022-08-21T10:55:55;23.40;99.90
19437;DHT22;9854;50.968;4.168;2022-08-21T10:58:37;23.30;99.90
19437;DHT22;9854;50.968;4.168;2022-08-21T11:01:20;23.40;99.90
19437;DHT22;9854;50.968;4.168;2022-08-21T11:03:59;23.20;99.90
19437;DHT22;9854;50.968;4.168;2022-08-21T11:06:30;23.40;99.90
19437;DHT22;9854;50.968;4.168;2022-08-21T11:09:16;23.70;99.90
19437;DHT22;9854;50.968;4.168;2022-08-21T11:17:13;23.70;99.90
19437;DHT22;9854;50.968;4.168;2022-08-21T11:19:53;24.00;99.90
19437;DHT22;9854;50.968;4.168;2022-08-21T11:22:30;24.20;99.90
19437;DHT22;9854;50.968;4.168;2022-08-21T11:25:27;24.90;99.90
19437;DHT22;9854;50.968;4.168;2022-08-21T11:29:17;25.50;99.90
19437;DHT22;9854;50.968;4.168;2022-08-21T11:34:32;25.30;99.90
19437;DHT22;9854;50.968;4.168;2022-08-21T11:37:21;24.50;99.90
19437;DHT22;9854;50.968;4.168;2022-08-21T11:40:00;23.80;99.90
19437;DHT22;9854;50.968;4.168;2022-08-21T11:42:50;23.50;99.90
19437;DHT22;9854;50.968;4.168;2022-08-21T11:45:31;23.50;99.90
19437;DHT22;9854;50.968;4.168;2022-08-21T11:51:00;23.90;99.90
19437;DHT22;9854;50.968;4.168;2022-08-21T11:56:18;23.90;99.90
19437;DHT22;9854;50.968;4.168;2022-08-21T11:58:49;23.80;99.90
19437;DHT22;9854;50.968;4.168;2022-08-21T12:01:22;23.70;99.90
19437;DHT22;9854;50.968;4.168;2022-08-21T12:04:08;23.70;99.90
19437;DHT22;9854;50.968;4.168;2022-08-21T12:06:38;23.50;99.90
19437;DHT22;9854;50.968;4.168;2022-08-21T12:09:11;23.50;99.90
19437;DHT22;9854;50.968;4.168;2022-08-21T12:12:22;23.60;99.90
19437;DHT22;9854;50.968;4.168;2022-08-21T12:14:51;24.00;99.90
19437;DHT22;9854;50.968;4.168;2022-08-21T12:17:36;24.20;99.90
19437;DHT22;9854;50.968;4.168;2022-08-21T12:23:15;24.50;99.90
19437;DHT22;9854;50.968;4.168;2022-08-21T12:25:46;24.30;99.90
19437;DHT22;9854;50.968;4.168;2022-08-21T12:28:22;24.50;99.90
19437;DHT22;9854;50.968;4.168;2022-08-21T12:30:49;24.60;99.90
19437;DHT22;9854;50.968;4.168;2022-08-21T12:33:28;24.60;99.90
19437;DHT22;9854;50.968;4.168;2022-08-21T12:36:12;24.50;99.90
19437;DHT22;9854;50.968;4.168;2022-08-21T12:38:57;24.30;99.90
19437;DHT22;9854;50.968;4.168;2022-08-21T12:41:28;24.10;99.90
19437;DHT22;9854;50.968;4.168;2022-08-21T12:44:09;23.80;99.90
19437;DHT22;9854;50.968;4.168;2022-08-21T12:49:27;23.80;99.90
19437;DHT22;9854;50.968;4.168;2022-08-21T12:55:14;24.00;99.90
19437;DHT22;9854;50.968;4.168;2022-08-21T12:57:41;24.10;99.90
19437;DHT22;9854;50.968;4.168;2022-08-21T13:00:09;24.20;99.90
19437;DHT22;9854;50.968;4.168;2022-08-21T13:02:45;24.30;99.90
19437;DHT22;9854;50.968;4.168;2022-08-21T13:05:16;24.40;99.90
19437;DHT22;9854;50.968;4.168;2022-08-21T13:07:47;24.40;99.90
19437;DHT22;9854;50.968;4.168;2022-08-21T13:10:26;24.50;99.90
19437;DHT22;9854;50.968;4.168;2022-08-21T13:13:20;24.20;99.90
19437;DHT22;9854;50.968;4.168;2022-08-21T13:15:47;24.00;99.90
19437;DHT22;9854;50.968;4.168;2022-08-21T13:18:27;24.00;99.90
19437;DHT22;9854;50.968;4.168;2022-08-21T13:21:09;24.20;99.90
19437;DHT22;9854;50.968;4.168;2022-08-21T13:23:36;24.50;99.90
19437;DHT22;9854;50.968;4.168;2022-08-21T13:26:15;25.00;99.90
19437;DHT22;9854;50.968;4.168;2022-08-21T13:28:41;25.50;99.90
19437;DHT22;9854;50.968;4.168;2022-08-21T13:31:08;25.50;99.90
19437;DHT22;9854;50.968;4.168;2022-08-21T13:33:37;25.20;99.90
19437;DHT22;9854;50.968;4.168;2022-08-21T13:36:14;25.20;99.90
19437;DHT22;9854;50.968;4.168;2022-08-21T13:38:41;25.40;99.90
19437;DHT22;9854;50.968;4.168;2022-08-21T13:41:25;25.50;99.90
19437;DHT22;9854;50.968;4.168;2022-08-21T13:43:58;25.80;99.90
19437;DHT22;9854;50.968;4.168;2022-08-21T13:46:28;26.10;99.90
19437;DHT22;9854;50.968;4.168;2022-08-21T13:48:54;26.20;99.90
19437;DHT22;9854;50.968;4.168;2022-08-21T13:51:21;26.10;99.90
19437;DHT22;9854;50.968;4.168;2022-08-21T13:53:50;25.90;99.90
19437;DHT22;9854;50.968;4.168;2022-08-21T13:56:32;25.90;99.90
19437;DHT22;9854;50.968;4.168;2022-08-21T13:59:00;26.10;99.90
19437;DHT22;9854;50.968;4.168;2022-08-21T14:01:49;26.20;99.90
19437;DHT22;9854;50.968;4.168;2022-08-21T14:04:20;26.30;99.90
19437;DHT22;9854;50.968;4.168;2022-08-21T14:06:47;26.40;99.90
19437;DHT22;9854;50.968;4.168;2022-08-21T14:09:26;26.40;99.90
19437;DHT22;9854;50.968;4.168;2022-08-21T14:11:54;26.40;99.90
19437;DHT22;9854;50.968;4.168;2022-08-21T14:14:22;26.70;99.90
19437;DHT22;9854;50.968;4.168;2022-08-21T14:17:02;26.50;99.90
19437;DHT22;9854;50.968;4.168;2022-08-21T14:19:40;26.60;99.90
19437;DHT22;9854;50.968;4.168;2022-08-21T14:22:46;26.40;99.90
19437;DHT22;9854;50.968;4.168;2022-08-21T14:30:35;26.80;99.90
19437;DHT22;9854;50.968;4.168;2022-08-21T14:33:02;26.50;99.90
19437;DHT22;9854;50.968;4.168;2022-08-21T14:35:29;26.70;99.90
19437;DHT22;9854;50.968;4.168;2022-08-21T14:37:55;26.80;99.90
19437;DHT22;9854;50.968;4.168;2022-08-21T14:40:23;26.60;99.90
19437;DHT22;9854;50.968;4.168;2022-08-21T14:42:50;26.50;99.90
19437;DHT22;9854;50.968;4.168;2022-08-21T14:45:24;26.60;99.90
19437;DHT22;9854;50.968;4.168;2022-08-21T14:47:51;26.70;99.90
19437;DHT22;9854;50.968;4.168;2022-08-21T14:50:17;26.90;99.90
19437;DHT22;9854;50.968;4.168;2022-08-21T14:52:42;26.90;99.90
19437;DHT22;9854;50.968;4.168;2022-08-21T14:55:11;27.00;99.90
19437;DHT22;9854;50.968;4.168;2022-08-21T14:57:49;26.80;99.90
19437;DHT22;9854;50.968;4.168;2022-08-21T15:00:18;26.60;99.90
19437;DHT22;9854;50.968;4.168;2022-08-21T15:02:45;26.50;99.90
19437;DHT22;9854;50.968;4.168;2022-08-21T15:05:12;26.60;99.90
19437;DHT22;9854;50.968;4.168;2022-08-21T15:07:40;26.70;99.90
19437;DHT22;9854;50.968;4.168;2022-08-21T15:10:06;27.00;99.90
19437;DHT22;9854;50.968;4.168;2022-08-21T15:12:32;27.00;99.90
19437;DHT22;9854;50.968;4.168;2022-08-21T15:14:58;27.20;99.90
19437;DHT22;9854;50.968;4.168;2022-08-21T15:17:24;27.20;99.90
19437;DHT22;9854;50.968;4.168;2022-08-21T15:19:50;27.10;99.90
19437;DHT22;9854;50.968;4.168;2022-08-21T15:22:16;27.10;99.90
19437;DHT22;9854;50.968;4.168;2022-08-21T15:24:41;27.30;99.90
19437;DHT22;9854;50.968;4.168;2022-08-21T15:27:08;27.20;99.90
19437;DHT22;9854;50.968;4.168;2022-08-21T15:29:35;27.30;99.90
19437;DHT22;9854;50.968;4.168;2022-08-21T15:32:25;27.30;99.90
19437;DHT22;9854;50.968;4.168;2022-08-21T15:34:50;27.20;99.90
19437;DHT22;9854;50.968;4.168;2022-08-21T15:37:16;27.40;99.90
19437;DHT22;9854;50.968;4.168;2022-08-21T15:39:42;27.10;99.90
19437;DHT22;9854;50.968;4.168;2022-08-21T15:42:09;26.90;99.90
19437;DHT22;9854;50.968;4.168;2022-08-21T15:44:36;26.90;99.90
19437;DHT22;9854;50.968;4.168;2022-08-21T15:47:02;26.70;99.90
19437;DHT22;9854;50.968;4.168;2022-08-21T15:49:28;26.60;99.90
19437;DHT22;9854;50.968;4.168;2022-08-21T15:51:53;26.60;99.90
19437;DHT22;9854;50.968;4.168;2022-08-21T15:54:19;26.50;99.90
19437;DHT22;9854;50.968;4.168;2022-08-21T15:56:48;26.00;99.90
19437;DHT22;9854;50.968;4.168;2022-08-21T15:59:20;26.00;99.90
19437;DHT22;9854;50.968;4.168;2022-08-21T16:01:49;26.10;99.90
19437;DHT22;9854;50.968;4.168;2022-08-21T16:04:21;26.10;99.90
19437;DHT22;9854;50.968;4.168;2022-08-21T16:06:47;26.10;99.90
19437;DHT22;9854;50.968;4.168;2022-08-21T16:09:14;26.40;99.90
19437;DHT22;9854;50.968;4.168;2022-08-21T16:11:41;26.50;99.90
19437;DHT22;9854;50.968;4.168;2022-08-21T16:14:07;26.50;99.90
19437;DHT22;9854;50.968;4.168;2022-08-21T16:16:34;26.40;99.90
19437;DHT22;9854;50.968;4.168;2022-08-21T16:19:02;26.40;99.90
19437;DHT22;9854;50.968;4.168;2022-08-21T16:21:28;26.50;99.90
19437;DHT22;9854;50.968;4.168;2022-08-21T16:23:53;26.40;99.90
19437;DHT22;9854;50.968;4.168;2022-08-21T16:26:19;26.50;99.90
19437;DHT22;9854;50.968;4.168;2022-08-21T16:28:45;26.60;99.90
19437;DHT22;9854;50.968;4.168;2022-08-21T16:31:13;26.70;99.90
19437;DHT22;9854;50.968;4.168;2022-08-21T16:33:49;26.90;99.90
19437;DHT22;9854;50.968;4.168;2022-08-21T16:36:15;26.80;99.90
19437;DHT22;9854;50.968;4.168;2022-08-21T16:38:41;26.70;99.90
19437;DHT22;9854;50.968;4.168;2022-08-21T16:41:10;26.90;99.90
19437;DHT22;9854;50.968;4.168;2022-08-21T16:43:38;26.80;99.90
19437;DHT22;9854;50.968;4.168;2022-08-21T16:46:04;26.60;99.90
19437;DHT22;9854;50.968;4.168;2022-08-21T16:48:30;26.50;99.90
19437;DHT22;9854;50.968;4.168;2022-08-21T16:50:57;26.60;99.90
19437;DHT22;9854;50.968;4.168;2022-08-21T16:53:22;26.50;99.90
19437;DHT22;9854;50.968;4.168;2022-08-21T16:55:50;26.60;99.90
19437;DHT22;9854;50.968;4.168;2022-08-21T16:58:34;26.60;99.90
19437;DHT22;9854;50.968;4.168;2022-08-21T17:01:04;26.50;99.90
19437;DHT22;9854;50.968;4.168;2022-08-21T17:03:38;26.30;99.90
19437;DHT22;9854;50.968;4.168;2022-08-21T17:06:05;26.30;99.90
19437;DHT22;9854;50.968;4.168;2022-08-21T17:08:32;26.20;99.90